createdAt,value
2023-04-28T00:01:12.540Z,96200.66
2023-04-28T00:03:39.750Z,96181.94
2023-04-28T00:06:06.589Z,96197.16
2023-04-28T00:08:33.635Z,96198.34
2023-04-28T00:11:00.957Z,96198.94
2023-04-28T00:13:27.589Z,96201.59
2023-04-28T00:15:54.419Z,96200.75
2023-04-28T00:18:21.581Z,96193.75
2023-04-28T00:20:48.343Z,96197.25
2023-04-28T00:23:15.703Z,96194.59
2023-04-28T00:25:42.312Z,96185.03
2023-04-28T00:28:09.005Z,96190.22
2023-04-28T00:30:35.619Z,96188.44
2023-04-28T00:33:02.225Z,96179.59
2023-04-28T00:35:28.755Z,96179.59
2023-04-28T00:37:55.391Z,96177.91
2023-04-28T00:40:22.207Z,96180.56
2023-04-28T00:42:48.950Z,96169.94
2023-04-28T00:45:15.666Z,96158.03
2023-04-28T00:47:42.495Z,96151.34
2023-04-28T00:50:10.517Z,96170.88
2023-04-28T00:52:38.749Z,96176.19
2023-04-28T00:55:07.730Z,96171.03
2023-04-28T00:57:34.373Z,96173.69
2023-04-28T01:00:01.099Z,96171.03
2023-04-28T01:02:30.195Z,96166.56
2023-04-28T01:04:58.145Z,96159.84
2023-04-28T01:07:25.572Z,96160.41
2023-04-28T01:09:52.361Z,96156.03
2023-04-28T01:12:24.508Z,96154.22
2023-04-28T01:14:53.652Z,96154.22
2023-04-28T01:17:20.543Z,96142.94
2023-04-28T01:19:47.423Z,96139.25
2023-04-28T01:22:16.459Z,96125.97
2023-04-28T01:24:44.181Z,96127.75
2023-04-28T01:27:12.846Z,96122.44
2023-04-28T01:29:41.329Z,96089.28
2023-04-28T01:32:08.780Z,96119.91
2023-04-28T01:34:35.493Z,96109.81
2023-04-28T01:37:05.114Z,96125.22
2023-04-28T01:39:31.825Z,96133.19
2023-04-28T01:41:58.371Z,96142.84
2023-04-28T01:44:25.491Z,96137.63
2023-04-28T01:46:52.056Z,96134.97
2023-04-28T01:49:21.650Z,96132.31
2023-04-28T01:51:48.185Z,96139.34
2023-04-28T01:54:14.967Z,96105.97
2023-04-28T01:56:42.293Z,96132.31
2023-04-28T01:59:11.095Z,96126.16
2023-04-28T02:01:38.426Z,96135.94
2023-04-28T02:04:05.561Z,96130.72
2023-04-28T02:06:34.880Z,96134.13
2023-04-28T02:09:01.537Z,96139.53
2023-04-28T02:11:28.070Z,96136.88
2023-04-28T02:13:56.760Z,96134.22
2023-04-28T02:16:23.474Z,96135.09
2023-04-28T02:18:51.001Z,96128.06
2023-04-28T02:21:17.575Z,96121.81
2023-04-28T02:23:45.083Z,96118.28
2023-04-28T02:26:11.923Z,96106.91
2023-04-28T02:28:38.569Z,96118.28
2023-04-28T02:31:06.246Z,96117.44
2023-04-28T02:33:33.282Z,96119.16
2023-04-28T02:36:00.902Z,96110.44
2023-04-28T02:38:27.752Z,96112.13
2023-04-28T02:40:59.152Z,96105.13
2023-04-28T02:43:26.370Z,96106.91
2023-04-28T02:45:53.288Z,96103.31
2023-04-28T02:48:20.084Z,96110.44
2023-04-28T02:50:46.719Z,96104.25
2023-04-28T02:53:13.406Z,96103.41
2023-04-28T02:55:40.086Z,96101.84
2023-04-28T02:58:07.104Z,96091.22
2023-04-28T03:00:33.781Z,96088.31
2023-04-28T03:03:00.524Z,96091.13
2023-04-28T03:05:27.359Z,96071.13
2023-04-28T03:07:54.047Z,96089.19
2023-04-28T03:10:20.861Z,96083.00
2023-04-28T03:12:47.584Z,96090.47
2023-04-28T03:15:14.403Z,96094.50
2023-04-28T03:17:43.018Z,96094.59
2023-04-28T03:20:10.743Z,96095.56
2023-04-28T03:22:37.415Z,96102.59
2023-04-28T03:25:05.335Z,96100.13
2023-04-28T03:27:40.196Z,96101.50
2023-04-28T03:30:07.332Z,96097.16
2023-04-28T03:32:34.372Z,96097.16
2023-04-28T03:35:01.216Z,96094.50
2023-04-28T03:37:27.784Z,96092.78
2023-04-28T03:39:54.488Z,96105.13
2023-04-28T03:42:21.130Z,96098.94
2023-04-28T03:45:07.275Z,96090.97
2023-04-28T03:47:34.119Z,96100.66
2023-04-28T03:50:00.964Z,96100.66
2023-04-28T03:52:27.590Z,96098.94
2023-04-28T03:54:55.052Z,96111.38
2023-04-28T03:57:21.787Z,96110.53
2023-04-28T03:59:48.372Z,96117.69
2023-04-28T04:02:16.507Z,96112.38
2023-04-28T04:04:43.929Z,96109.72
2023-04-28T04:07:11.288Z,96115.13
2023-04-28T04:09:37.896Z,96110.09
2023-04-28T04:12:06.511Z,96115.97
2023-04-28T04:14:33.327Z,96118.72
2023-04-28T04:17:00.492Z,96109.06
2023-04-28T04:19:28.000Z,96108.19
2023-04-28T04:21:55.438Z,96101.09
2023-04-28T04:24:22.521Z,96094.06
2023-04-28T04:26:49.652Z,96099.28
2023-04-28T04:29:28.999Z,96088.75
2023-04-28T04:31:56.363Z,96085.25
2023-04-28T04:34:23.009Z,96084.28
2023-04-28T04:36:49.665Z,96078.13
2023-04-28T04:39:16.357Z,96079.84
2023-04-28T04:41:42.986Z,96073.66
2023-04-28T04:44:25.671Z,96065.59
2023-04-28T04:46:54.353Z,96040.75
2023-04-28T04:49:21.098Z,96016.00
2023-04-28T04:51:47.735Z,96043.50
2023-04-28T04:54:14.558Z,96041.69
2023-04-28T04:56:42.804Z,96046.06
2023-04-28T04:59:11.809Z,96048.59
2023-04-28T05:01:55.671Z,96056.44
2023-04-28T05:04:22.829Z,96068.78
2023-04-28T05:06:49.813Z,96074.09
2023-04-28T05:09:17.234Z,96081.00
2023-04-28T05:11:45.171Z,96082.72
2023-04-28T05:14:12.013Z,96083.53
2023-04-28T05:16:42.092Z,96086.31
2023-04-28T05:19:16.929Z,96085.38
2023-04-28T05:21:44.057Z,96075.91
2023-04-28T05:24:10.689Z,96085.88
2023-04-28T05:26:37.353Z,96065.50
2023-04-28T05:29:08.158Z,96069.19
2023-04-28T05:31:34.984Z,96059.50
2023-04-28T05:34:01.789Z,96064.19
2023-04-28T05:36:28.470Z,96063.56
2023-04-28T05:38:55.073Z,96068.97
2023-04-28T05:41:23.313Z,96080.44
2023-04-28T05:43:51.245Z,96056.53
2023-04-28T05:46:29.881Z,96075.25
2023-04-28T05:48:58.784Z,96102.56
2023-04-28T05:51:27.363Z,96072.59
2023-04-28T05:53:54.029Z,96053.16
2023-04-28T05:56:20.786Z,96054.00
2023-04-28T05:58:49.872Z,96049.75
2023-04-28T06:01:17.319Z,96051.47
2023-04-28T06:03:45.225Z,96052.31
2023-04-28T06:06:12.208Z,96043.16
2023-04-28T06:08:39.128Z,96065.25
2023-04-28T06:11:06.556Z,96070.38
2023-04-28T06:13:33.302Z,96081.50
2023-04-28T06:15:59.858Z,96122.72
2023-04-28T06:18:27.114Z,96101.06
2023-04-28T06:20:53.698Z,96106.72
2023-04-28T06:23:20.356Z,96095.94
2023-04-28T06:25:51.336Z,96111.88
2023-04-28T06:28:18.036Z,96087.50
2023-04-28T06:30:45.236Z,96088.13
2023-04-28T06:33:11.912Z,96099.47
2023-04-28T06:35:39.917Z,96089.00
2023-04-28T06:38:06.693Z,96090.31
2023-04-28T06:40:33.345Z,96087.00
2023-04-28T06:43:01.827Z,96088.91
2023-04-28T06:45:46.274Z,96089.16
2023-04-28T06:48:12.944Z,96093.06
2023-04-28T06:50:40.755Z,96102.28
2023-04-28T06:53:09.025Z,96108.84
2023-04-28T06:55:35.781Z,96110.09
2023-04-28T06:58:02.523Z,96124.63
2023-04-28T07:00:29.138Z,96118.81
2023-04-28T07:02:56.134Z,96126.22
2023-04-28T07:05:22.914Z,96125.78
2023-04-28T07:07:49.498Z,96126.28
2023-04-28T07:10:16.178Z,96134.69
2023-04-28T07:12:42.856Z,96137.69
2023-04-28T07:15:10.424Z,96132.00
2023-04-28T07:17:37.891Z,96148.38
2023-04-28T07:20:05.656Z,96154.06
2023-04-28T07:22:32.270Z,96159.91
2023-04-28T07:24:58.805Z,96161.25
2023-04-28T07:27:25.676Z,96157.38
2023-04-28T07:29:52.415Z,96159.56
2023-04-28T07:32:19.311Z,96149.38
2023-04-28T07:34:46.518Z,96147.91
2023-04-28T07:37:13.278Z,96152.88
2023-04-28T07:39:40.595Z,96145.38
2023-04-28T07:42:07.236Z,96139.94
2023-04-28T07:44:34.968Z,96140.88
2023-04-28T07:47:01.924Z,96132.75
2023-04-28T07:49:28.687Z,96134.09
2023-04-28T07:51:56.549Z,96128.13
2023-04-28T07:54:23.467Z,96123.13
2023-04-28T07:56:50.188Z,96115.13
2023-04-28T07:59:16.823Z,96101.88
2023-04-28T08:01:43.419Z,96104.03
2023-04-28T08:04:11.209Z,96105.13
2023-04-28T08:06:38.957Z,96117.94
2023-04-28T08:09:06.308Z,96109.47
2023-04-28T08:11:33.675Z,96111.78
2023-04-28T08:14:03.816Z,96110.66
2023-04-28T08:16:31.124Z,96106.44
2023-04-28T08:18:58.098Z,96116.19
2023-04-28T08:21:24.908Z,96123.38
2023-04-28T08:23:51.635Z,96108.53
2023-04-28T08:26:18.312Z,96105.59
2023-04-28T08:28:44.897Z,96116.75
2023-04-28T08:31:11.505Z,96118.19
2023-04-28T08:33:39.035Z,96116.94
2023-04-28T08:36:06.486Z,96109.50
2023-04-28T08:38:33.086Z,96117.97
2023-04-28T08:40:59.673Z,96114.91
2023-04-28T08:43:26.260Z,96109.16
2023-04-28T08:45:53.121Z,96107.09
2023-04-28T08:48:21.523Z,96107.69
2023-04-28T08:50:54.428Z,96109.00
2023-04-28T08:53:25.751Z,96111.41
2023-04-28T08:55:57.309Z,96106.78
2023-04-28T08:58:25.276Z,96108.19
2023-04-28T09:00:52.806Z,96107.94
2023-04-28T09:03:19.842Z,96106.69
2023-04-28T09:05:47.122Z,96116.13
2023-04-28T09:08:14.162Z,96111.38
2023-04-28T09:10:41.076Z,96111.13
2023-04-28T09:13:07.816Z,96108.03
2023-04-28T09:15:37.544Z,96103.28
2023-04-28T09:18:06.586Z,96090.72
2023-04-28T09:20:34.755Z,96089.34
2023-04-28T09:23:20.971Z,96085.41
2023-04-28T09:26:04.892Z,96089.50
2023-04-28T09:28:32.400Z,96091.81
2023-04-28T09:30:59.143Z,96092.34
2023-04-28T09:33:25.944Z,96094.75
2023-04-28T09:35:53.429Z,96097.19
2023-04-28T09:38:21.819Z,96092.41
2023-04-28T09:40:55.962Z,96098.34
2023-04-28T09:43:35.373Z,96094.41
2023-04-28T09:46:03.870Z,96096.81
2023-04-28T09:48:32.688Z,96085.09
2023-04-28T09:51:04.092Z,96091.91
2023-04-28T09:53:31.086Z,96088.94
2023-04-28T09:56:00.184Z,96071.19
2023-04-28T09:58:27.778Z,96049.97
2023-04-28T10:00:57.486Z,96035.09
2023-04-28T10:03:29.362Z,96039.00
2023-04-28T10:05:58.640Z,96040.34
2023-04-28T10:08:27.077Z,96037.59
2023-04-28T10:10:54.538Z,96046.28
2023-04-28T10:13:22.111Z,96039.03
2023-04-28T10:15:55.599Z,96036.66
2023-04-28T10:18:23.370Z,96033.25
2023-04-28T10:20:54.011Z,96043.25
2023-04-28T10:23:58.221Z,96032.56
2023-04-28T10:26:51.339Z,96037.31
2023-04-28T10:29:24.219Z,96034.63
2023-04-28T10:32:19.891Z,96034.88
2023-04-28T10:34:47.185Z,96027.16
2023-04-28T10:37:18.404Z,96021.09
2023-04-28T10:40:23.053Z,96049.59
2023-04-28T10:42:56.551Z,96022.31
2023-04-28T10:45:56.558Z,96016.41
2023-04-28T10:48:46.858Z,96014.81
2023-04-28T10:51:16.416Z,96023.81
2023-04-28T10:53:46.838Z,96027.59
2023-04-28T10:56:27.335Z,96029.53
2023-04-28T10:58:55.462Z,96025.44
2023-04-28T11:01:22.341Z,96032.63
2023-04-28T11:04:00.065Z,96029.22
2023-04-28T11:06:34.743Z,96016.63
2023-04-28T11:09:33.527Z,96026.22
2023-04-28T11:12:00.047Z,96033.50
2023-04-28T11:14:32.753Z,96009.72
2023-04-28T11:17:03.553Z,96009.84
2023-04-28T11:19:31.977Z,96034.88
2023-04-28T11:22:03.374Z,96021.16
2023-04-28T11:24:30.919Z,96001.03
2023-04-28T11:26:58.466Z,95995.25
2023-04-28T11:29:51.320Z,96000.84
2023-04-28T11:32:26.549Z,96002.69
2023-04-28T11:34:53.326Z,96005.34
2023-04-28T11:37:21.479Z,96025.97
2023-04-28T11:39:48.329Z,96016.53
2023-04-28T11:42:15.144Z,96004.66
2023-04-28T11:44:50.166Z,96007.84
2023-04-28T11:47:17.013Z,96005.53
2023-04-28T11:49:45.472Z,95995.13
2023-04-28T11:52:13.591Z,96007.88
2023-04-28T11:54:43.332Z,96023.28
2023-04-28T11:57:20.243Z,96018.53
2023-04-28T11:59:47.863Z,96020.75
2023-04-28T12:02:16.906Z,96023.91
2023-04-28T12:04:44.516Z,96023.44
2023-04-28T12:07:18.417Z,96027.44
2023-04-28T12:09:46.474Z,96026.97
2023-04-28T12:12:15.040Z,96023.69
2023-04-28T12:15:02.122Z,96028.56
2023-04-28T12:17:39.473Z,96008.19
2023-04-28T12:20:08.383Z,96016.69
2023-04-28T12:22:50.978Z,96016.19
2023-04-28T12:25:19.378Z,96030.63
2023-04-28T12:28:05.403Z,96023.84
2023-04-28T12:30:33.769Z,96022.38
2023-04-28T12:33:00.509Z,96021.16
2023-04-28T12:35:28.421Z,96033.16
2023-04-28T12:37:56.905Z,96023.50
2023-04-28T12:40:24.302Z,96018.50
2023-04-28T12:42:51.457Z,96019.72
2023-04-28T12:45:18.424Z,96021.72
2023-04-28T12:47:45.013Z,96017.88
2023-04-28T12:50:11.902Z,96023.44
2023-04-28T12:52:38.658Z,96024.41
2023-04-28T12:55:05.846Z,96019.19
2023-04-28T12:57:32.490Z,96025.59
2023-04-28T12:59:59.176Z,96024.75
2023-04-28T13:02:25.890Z,96028.25
2023-04-28T13:04:53.383Z,96027.41
2023-04-28T13:07:20.486Z,96027.53
2023-04-28T13:09:47.983Z,96025.84
2023-04-28T13:12:14.971Z,96031.28
2023-04-28T13:14:41.913Z,96009.75
2023-04-28T13:17:10.046Z,96022.56
2023-04-28T13:19:37.399Z,96018.19
2023-04-28T13:22:05.952Z,96014.09
2023-04-28T13:24:35.843Z,96024.28
2023-04-28T13:27:03.845Z,96014.59
2023-04-28T13:29:30.407Z,96015.53
2023-04-28T13:31:57.088Z,96013.75
2023-04-28T13:34:23.725Z,96011.31
2023-04-28T13:36:51.129Z,95981.28
2023-04-28T13:39:20.190Z,95984.31
2023-04-28T13:41:46.875Z,95975.72
2023-04-28T13:44:13.484Z,95975.00
2023-04-28T13:46:40.086Z,95970.63
2023-04-28T13:49:07.284Z,96000.03
2023-04-28T13:51:33.983Z,95993.63
2023-04-28T13:54:01.129Z,95972.31
2023-04-28T13:56:27.836Z,95972.31
2023-04-28T13:58:54.532Z,95974.16
2023-04-28T14:01:21.104Z,95977.53
2023-04-28T14:03:47.905Z,95998.84
2023-04-28T14:06:14.578Z,95997.13
2023-04-28T14:08:41.228Z,96007.66
2023-04-28T14:11:08.303Z,95998.94
2023-04-28T14:13:35.259Z,96006.81
